createdAt,value
2019-02-25T00:00:34.730Z,17.57
2019-02-25T00:01:31.933Z,16.55
2019-02-25T00:02:11.904Z,17.73
2019-02-25T00:02:45.488Z,18.67
2019-02-25T00:03:18.962Z,20.37
2019-02-25T00:03:53.094Z,16.57
2019-02-25T00:04:33.801Z,17.57
2019-02-25T00:05:07.609Z,18.62
2019-02-25T00:05:41.121Z,16.02
2019-02-25T00:06:14.712Z,14.90
2019-02-25T00:06:48.239Z,15.20
2019-02-25T00:07:21.714Z,18.40
2019-02-25T00:07:55.222Z,15.90
2019-02-25T00:08:28.713Z,20.08
2019-02-25T00:09:02.256Z,15.40
2019-02-25T00:09:35.751Z,15.08
2019-02-25T00:10:09.442Z,18.57
2019-02-25T00:10:42.939Z,16.80
2019-02-25T00:11:16.448Z,19.10
2019-02-25T00:11:49.963Z,16.42
2019-02-25T00:12:23.587Z,18.25
2019-02-25T00:12:57.333Z,19.50
2019-02-25T00:13:30.851Z,14.38
2019-02-25T00:14:04.459Z,15.68
2019-02-25T00:14:38.019Z,13.75
2019-02-25T00:15:11.525Z,13.53
2019-02-25T00:15:45.049Z,16.73
2019-02-25T00:16:18.536Z,18.75
2019-02-25T00:16:52.038Z,16.52
2019-02-25T00:17:25.554Z,17.50
2019-02-25T00:17:59.649Z,18.67
2019-02-25T00:18:33.136Z,16.07
2019-02-25T00:19:06.628Z,15.80
2019-02-25T00:19:40.132Z,16.85
2019-02-25T00:20:14.036Z,16.40
2019-02-25T00:20:47.523Z,14.87
2019-02-25T00:21:21.005Z,17.32
2019-02-25T00:21:54.482Z,20.45
2019-02-25T00:22:27.976Z,17.27
2019-02-25T00:23:01.555Z,15.40
2019-02-25T00:23:35.120Z,16.87
2019-02-25T00:24:08.809Z,17.65
2019-02-25T00:24:42.336Z,18.23
2019-02-25T00:25:16.825Z,17.98
2019-02-25T00:25:50.304Z,14.85
2019-02-25T00:26:23.893Z,17.23
2019-02-25T00:26:57.292Z,17.02
2019-02-25T00:27:30.713Z,16.55
2019-02-25T00:28:04.224Z,16.02
2019-02-25T00:28:37.729Z,18.62
2019-02-25T00:29:11.215Z,17.20
2019-02-25T00:29:44.704Z,16.77
2019-02-25T00:30:18.209Z,19.30
2019-02-25T00:30:51.772Z,18.48
2019-02-25T00:31:25.280Z,15.40
2019-02-25T00:31:58.768Z,16.00
2019-02-25T00:32:32.330Z,16.12
2019-02-25T00:33:05.823Z,12.95
2019-02-25T00:33:39.313Z,14.87
2019-02-25T00:34:12.794Z,18.60
2019-02-25T00:34:46.293Z,16.73
2019-02-25T00:35:19.800Z,16.10
2019-02-25T00:35:53.332Z,16.60
2019-02-25T00:36:26.825Z,20.40
2019-02-25T00:37:00.386Z,16.65
2019-02-25T00:37:33.923Z,18.75
2019-02-25T00:38:07.442Z,18.02
2019-02-25T00:38:40.875Z,19.15
2019-02-25T00:39:14.317Z,17.75
2019-02-25T00:39:47.802Z,18.40
2019-02-25T00:40:21.331Z,17.65
2019-02-25T00:40:54.893Z,15.25
2019-02-25T00:41:28.405Z,14.68
2019-02-25T00:42:01.912Z,16.70
2019-02-25T00:42:35.528Z,17.12
2019-02-25T00:43:09.074Z,16.20
2019-02-25T00:43:42.737Z,17.65
2019-02-25T00:44:16.262Z,17.48
2019-02-25T00:44:49.785Z,15.32
2019-02-25T00:45:23.584Z,16.20
2019-02-25T00:45:57.077Z,18.20
2019-02-25T00:46:30.578Z,13.58
2019-02-25T00:47:04.266Z,15.58
2019-02-25T00:47:37.805Z,16.50
2019-02-25T00:48:11.297Z,15.53
2019-02-25T00:48:44.763Z,14.50
2019-02-25T00:49:18.271Z,16.30
2019-02-25T00:49:51.753Z,16.95
2019-02-25T00:50:25.261Z,18.73
2019-02-25T00:50:58.733Z,17.87
2019-02-25T00:51:32.232Z,13.98
2019-02-25T00:52:05.743Z,17.77
2019-02-25T00:52:39.221Z,14.30
2019-02-25T00:53:12.837Z,26.93
2019-02-25T00:53:46.382Z,14.85
2019-02-25T00:54:19.873Z,19.87
2019-02-25T00:54:53.377Z,18.42
2019-02-25T00:55:26.896Z,17.05
2019-02-25T00:56:00.349Z,17.12
2019-02-25T00:56:33.835Z,16.75
2019-02-25T00:57:08.976Z,16.42
2019-02-25T00:57:42.510Z,17.48
2019-02-25T00:58:15.902Z,17.00
2019-02-25T00:58:49.400Z,16.57
2019-02-25T00:59:22.881Z,17.92
2019-02-25T00:59:56.355Z,22.27
2019-02-25T01:00:29.877Z,13.90
2019-02-25T01:01:03.356Z,15.68
2019-02-25T01:01:36.849Z,15.38
2019-02-25T01:02:10.323Z,17.67
2019-02-25T01:02:43.818Z,20.02
2019-02-25T01:03:17.313Z,20.85
2019-02-25T01:03:50.786Z,19.12
2019-02-25T01:04:24.275Z,18.30
2019-02-25T01:04:57.772Z,18.05
2019-02-25T01:05:31.296Z,17.00
2019-02-25T01:06:04.798Z,14.70
2019-02-25T01:06:38.302Z,16.30
2019-02-25T01:07:12.023Z,16.82
2019-02-25T01:07:45.996Z,18.15
2019-02-25T01:08:19.489Z,15.58
2019-02-25T01:08:52.972Z,24.80
2019-02-25T01:09:26.489Z,16.25
2019-02-25T01:09:59.960Z,15.15
2019-02-25T01:10:33.487Z,14.70
2019-02-25T01:11:07.077Z,17.85
2019-02-25T01:11:40.607Z,21.45
2019-02-25T01:12:14.757Z,16.27
2019-02-25T01:12:48.717Z,16.62
2019-02-25T01:13:22.532Z,17.02
2019-02-25T01:13:56.591Z,16.48
2019-02-25T01:14:30.150Z,25.77
2019-02-25T01:15:52.188Z,15.85
2019-02-25T01:16:26.137Z,16.30
2019-02-25T01:17:01.935Z,18.35
2019-02-25T01:17:35.600Z,14.13
2019-02-25T01:18:09.173Z,16.07
2019-02-25T01:18:42.761Z,18.55
2019-02-25T01:19:16.225Z,16.77
2019-02-25T01:19:49.717Z,14.55
2019-02-25T01:20:23.197Z,17.57
2019-02-25T01:20:56.704Z,15.23
2019-02-25T01:21:30.204Z,20.57
2019-02-25T01:22:03.694Z,13.58
2019-02-25T01:22:37.215Z,16.75
2019-02-25T01:23:10.708Z,16.55
2019-02-25T01:23:44.165Z,18.05
2019-02-25T01:24:17.662Z,16.82
2019-02-25T01:24:51.149Z,17.60
2019-02-25T01:25:24.658Z,19.75
2019-02-25T01:25:58.173Z,15.00
2019-02-25T01:26:31.654Z,18.05
2019-02-25T01:27:05.156Z,17.77
2019-02-25T01:27:38.647Z,15.90
2019-02-25T01:28:12.121Z,18.52
2019-02-25T01:28:45.623Z,18.25
2019-02-25T01:29:19.137Z,17.82
2019-02-25T01:29:52.643Z,17.42
2019-02-25T01:30:26.112Z,16.57
2019-02-25T01:30:59.745Z,18.20
2019-02-25T01:31:33.175Z,20.05
2019-02-25T01:32:06.647Z,15.85
2019-02-25T01:32:40.143Z,18.32
2019-02-25T01:33:13.918Z,17.15
2019-02-25T01:33:47.430Z,15.25
2019-02-25T01:34:20.838Z,14.93
2019-02-25T01:34:54.345Z,19.07
2019-02-25T01:35:27.820Z,19.57
2019-02-25T01:36:01.305Z,17.57
2019-02-25T01:36:34.830Z,17.00
2019-02-25T01:37:08.377Z,27.30
2019-02-25T01:37:41.923Z,16.30
2019-02-25T01:38:15.789Z,15.28
2019-02-25T01:38:49.474Z,17.00
2019-02-25T01:39:22.941Z,19.73
2019-02-25T01:39:56.449Z,16.35
2019-02-25T01:40:29.968Z,13.65
2019-02-25T01:41:03.479Z,19.27
2019-02-25T01:41:36.979Z,16.10
2019-02-25T01:42:10.456Z,18.52
2019-02-25T01:42:43.965Z,16.20
2019-02-25T01:43:17.497Z,17.87
2019-02-25T01:43:51.058Z,15.08
2019-02-25T01:44:24.542Z,15.90
2019-02-25T01:44:58.039Z,14.13
2019-02-25T01:45:32.294Z,16.57
2019-02-25T01:46:06.571Z,17.75
2019-02-25T01:46:40.155Z,17.45
2019-02-25T01:47:13.633Z,18.82
2019-02-25T01:47:47.140Z,14.78
2019-02-25T01:48:20.829Z,17.05
2019-02-25T01:48:54.798Z,16.27
2019-02-25T01:49:28.679Z,19.95
2019-02-25T01:50:02.633Z,14.70
2019-02-25T01:50:36.833Z,18.17
2019-02-25T01:51:10.786Z,15.20
2019-02-25T01:51:44.375Z,16.75
2019-02-25T01:52:17.854Z,17.87
2019-02-25T01:53:10.462Z,17.10
2019-02-25T01:53:44.420Z,19.62
2019-02-25T01:54:18.033Z,15.60
2019-02-25T01:54:51.600Z,16.57
2019-02-25T01:55:25.400Z,21.02
2019-02-25T01:55:59.107Z,16.30
2019-02-25T01:56:32.977Z,15.53
2019-02-25T01:57:06.724Z,17.17
2019-02-25T01:57:40.329Z,19.67
2019-02-25T01:58:14.284Z,18.10
2019-02-25T01:58:48.061Z,14.90
2019-02-25T01:59:21.755Z,15.95
2019-02-25T02:00:14.458Z,17.07
2019-02-25T02:00:48.149Z,17.10
2019-02-25T02:01:22.738Z,15.72
2019-02-25T02:01:56.388Z,15.83
2019-02-25T02:02:29.806Z,17.10
2019-02-25T02:03:03.324Z,18.05
2019-02-25T02:03:36.853Z,19.12
2019-02-25T02:04:10.543Z,17.48
2019-02-25T02:04:44.193Z,14.98
2019-02-25T02:05:17.854Z,17.50
2019-02-25T02:05:51.477Z,17.20
2019-02-25T02:06:25.435Z,17.60
2019-02-25T02:06:58.921Z,20.85
2019-02-25T02:07:32.408Z,20.50
2019-02-25T02:08:06.001Z,17.37
2019-02-25T02:08:39.818Z,15.70
2019-02-25T02:09:14.013Z,15.53
2019-02-25T02:09:48.098Z,16.55
2019-02-25T02:10:21.804Z,16.60
2019-02-25T02:10:55.294Z,18.02
2019-02-25T02:11:29.935Z,19.65
2019-02-25T02:12:03.601Z,17.82
2019-02-25T02:12:37.361Z,17.70
2019-02-25T02:13:14.133Z,17.15
2019-02-25T02:13:46.893Z,18.95
2019-02-25T02:14:21.047Z,16.32
2019-02-25T02:14:54.811Z,18.02
2019-02-25T02:15:28.875Z,15.23
2019-02-25T02:16:21.502Z,16.30
2019-02-25T02:16:56.056Z,19.25
2019-02-25T02:17:30.390Z,17.85
2019-02-25T02:18:04.167Z,16.93
2019-02-25T02:18:38.141Z,20.17
2019-02-25T02:19:12.267Z,17.40
2019-02-25T02:19:46.166Z,17.35
2019-02-25T02:20:19.766Z,15.53
2019-02-25T02:20:53.624Z,14.40
2019-02-25T02:21:27.502Z,15.85
2019-02-25T02:22:00.981Z,15.75
2019-02-25T02:22:34.460Z,17.90
2019-02-25T02:23:08.009Z,17.77
2019-02-25T02:23:41.510Z,19.35
2019-02-25T02:24:15.011Z,15.98
2019-02-25T02:24:48.498Z,16.52
2019-02-25T02:25:21.997Z,17.27
2019-02-25T02:25:55.471Z,20.92
2019-02-25T02:26:28.979Z,15.10
2019-02-25T02:27:02.478Z,17.90
2019-02-25T02:27:55.161Z,15.65
2019-02-25T02:28:28.704Z,16.75
2019-02-25T02:29:21.308Z,16.32
2019-02-25T02:29:54.750Z,17.35
2019-02-25T02:30:28.238Z,18.40
2019-02-25T02:31:04.542Z,20.48
2019-02-25T02:31:38.120Z,16.02
2019-02-25T02:32:11.825Z,16.97
2019-02-25T02:32:45.337Z,14.68
2019-02-25T02:33:18.821Z,14.83
2019-02-25T02:33:52.309Z,17.92
2019-02-25T02:34:25.788Z,15.75
2019-02-25T02:34:59.313Z,16.60
2019-02-25T02:35:32.849Z,19.67
2019-02-25T02:36:07.548Z,18.67
2019-02-25T02:36:41.073Z,15.60
2019-02-25T02:37:14.577Z,20.97
2019-02-25T02:37:48.131Z,19.42
2019-02-25T02:38:21.660Z,19.67
2019-02-25T02:38:55.108Z,18.07
2019-02-25T02:39:28.678Z,17.65
2019-02-25T02:40:02.257Z,18.55
2019-02-25T02:40:35.772Z,19.70
2019-02-25T02:41:09.237Z,18.25
2019-02-25T02:42:00.940Z,16.65
2019-02-25T02:42:34.474Z,18.12
2019-02-25T02:43:08.045Z,19.02
2019-02-25T02:43:41.551Z,17.12
2019-02-25T02:44:15.048Z,21.48
2019-02-25T02:44:49.948Z,15.72
2019-02-25T02:45:37.449Z,16.73
2019-02-25T02:46:13.316Z,21.30
2019-02-25T02:46:56.648Z,15.93
2019-02-25T02:47:31.837Z,16.90
2019-02-25T02:48:07.099Z,17.12
2019-02-25T02:48:42.923Z,19.48
2019-02-25T02:49:16.489Z,17.95
2019-02-25T02:49:49.969Z,17.17
2019-02-25T02:50:24.084Z,20.25
2019-02-25T02:51:16.686Z,16.35
2019-02-25T02:51:50.597Z,22.87
2019-02-25T02:52:24.008Z,18.82
2019-02-25T02:52:57.457Z,20.95
2019-02-25T02:53:30.904Z,16.27
2019-02-25T02:54:04.851Z,16.87
2019-02-25T02:54:38.326Z,15.70
2019-02-25T02:55:14.153Z,19.27
2019-02-25T02:55:47.647Z,16.85
2019-02-25T02:56:21.127Z,20.88
2019-02-25T02:56:54.621Z,18.05
2019-02-25T02:57:28.116Z,21.17
2019-02-25T02:58:01.671Z,17.75
2019-02-25T02:58:35.208Z,21.95
2019-02-25T02:59:08.880Z,16.30
2019-02-25T02:59:42.463Z,16.75
2019-02-25T03:00:16.787Z,18.87
2019-02-25T03:00:50.273Z,16.60
2019-02-25T03:01:23.789Z,18.62
2019-02-25T03:01:57.269Z,16.10
2019-02-25T03:02:31.114Z,15.48
2019-02-25T03:03:04.844Z,21.20
2019-02-25T03:03:38.775Z,19.42
2019-02-25T03:04:12.254Z,20.35
2019-02-25T03:04:45.691Z,18.85
2019-02-25T03:05:19.365Z,17.25
2019-02-25T03:05:52.891Z,21.85
2019-02-25T03:06:26.427Z,19.90
2019-02-25T03:06:59.944Z,19.92
2019-02-25T03:07:33.473Z,17.87
2019-02-25T03:08:06.975Z,20.77
2019-02-25T03:08:40.461Z,14.87
2019-02-25T03:09:13.945Z,18.25
2019-02-25T03:09:48.318Z,16.70
2019-02-25T03:10:21.800Z,17.62
2019-02-25T03:10:55.307Z,19.00
2019-02-25T03:11:28.999Z,19.10
2019-02-25T03:12:02.714Z,22.48
2019-02-25T03:12:37.417Z,19.35
2019-02-25T03:13:11.229Z,16.45
2019-02-25T03:13:44.719Z,19.77
2019-02-25T03:14:18.219Z,18.07
2019-02-25T03:14:51.775Z,19.48
2019-02-25T03:15:25.318Z,20.85
2019-02-25T03:15:58.821Z,19.17
2019-02-25T03:16:32.300Z,18.95
2019-02-25T03:17:05.813Z,17.27
2019-02-25T03:17:40.321Z,17.15
2019-02-25T03:18:13.817Z,18.15
2019-02-25T03:18:47.296Z,20.57
2019-02-25T03:19:20.823Z,18.65
2019-02-25T03:19:54.322Z,16.80
2019-02-25T03:20:27.829Z,17.80
2019-02-25T03:21:01.303Z,16.07
2019-02-25T03:21:34.720Z,17.20
2019-02-25T03:22:08.213Z,20.02
2019-02-25T03:22:42.096Z,18.50
2019-02-25T03:23:15.578Z,15.70
2019-02-25T03:23:49.074Z,18.30
2019-02-25T03:24:22.559Z,17.10
2019-02-25T03:24:56.099Z,17.92
2019-02-25T03:25:29.565Z,19.90
2019-02-25T03:26:03.131Z,20.62
2019-02-25T03:26:36.798Z,19.10
2019-02-25T03:27:10.321Z,21.52
2019-02-25T03:27:43.850Z,19.82
2019-02-25T03:28:17.334Z,17.70
2019-02-25T03:28:50.808Z,18.85
2019-02-25T03:29:24.317Z,19.80
2019-02-25T03:29:57.803Z,21.77
2019-02-25T03:30:31.294Z,20.48
2019-02-25T03:31:04.766Z,17.92
2019-02-25T03:31:38.266Z,17.32
2019-02-25T03:32:11.764Z,20.10
2019-02-25T03:32:45.277Z,19.10
2019-02-25T03:33:18.849Z,16.62
2019-02-25T03:33:52.529Z,17.65
2019-02-25T03:34:26.094Z,20.50
2019-02-25T03:34:59.656Z,18.05
2019-02-25T03:35:33.165Z,17.87
2019-02-25T03:36:06.640Z,18.85
2019-02-25T03:36:40.125Z,19.00
2019-02-25T03:37:13.625Z,17.92
2019-02-25T03:37:47.105Z,22.73
2019-02-25T03:38:20.511Z,18.48
2019-02-25T03:38:54.336Z,17.65
2019-02-25T03:39:27.772Z,23.35
2019-02-25T03:40:01.341Z,18.37
2019-02-25T03:40:34.835Z,19.27
2019-02-25T03:41:08.320Z,20.72
2019-02-25T03:41:41.822Z,19.32
2019-02-25T03:42:15.394Z,19.23
2019-02-25T03:42:49.201Z,18.77
2019-02-25T03:43:22.774Z,18.57
2019-02-25T03:43:56.270Z,19.98
2019-02-25T03:44:29.844Z,17.45
2019-02-25T03:45:03.461Z,19.17
2019-02-25T03:45:36.998Z,21.90
2019-02-25T03:46:10.518Z,20.00
2019-02-25T03:46:43.990Z,19.40
2019-02-25T03:47:17.474Z,18.00
2019-02-25T03:47:51.021Z,18.00
2019-02-25T03:48:24.568Z,18.67
2019-02-25T03:48:58.087Z,19.52
2019-02-25T03:49:31.587Z,15.15
2019-02-25T03:50:05.189Z,22.80
2019-02-25T03:50:38.669Z,18.15
2019-02-25T03:51:12.181Z,20.55
2019-02-25T03:51:45.662Z,19.60
2019-02-25T03:52:19.060Z,22.02
2019-02-25T03:52:53.333Z,18.80
2019-02-25T03:53:26.901Z,17.77
2019-02-25T03:54:00.378Z,22.45
2019-02-25T03:54:33.950Z,17.98
2019-02-25T03:55:08.458Z,23.55
2019-02-25T03:55:42.085Z,20.75
2019-02-25T03:56:15.609Z,19.45
2019-02-25T03:56:49.075Z,20.35
2019-02-25T03:57:22.550Z,16.35
2019-02-25T03:57:56.088Z,21.00
2019-02-25T03:58:29.573Z,21.35
2019-02-25T03:59:03.067Z,18.75
2019-02-25T03:59:36.572Z,17.40
2019-02-25T04:00:19.871Z,25.85
2019-02-25T04:00:53.354Z,18.12
2019-02-25T04:01:26.882Z,18.92
2019-02-25T04:02:00.361Z,18.42
2019-02-25T04:02:33.849Z,19.57
2019-02-25T04:03:08.222Z,16.75
2019-02-25T04:03:41.782Z,23.15
2019-02-25T04:04:15.327Z,17.42
2019-02-25T04:04:49.334Z,21.45
2019-02-25T04:05:22.838Z,17.30
2019-02-25T04:05:56.320Z,19.62
2019-02-25T04:06:29.869Z,17.57
2019-02-25T04:07:03.361Z,17.42
2019-02-25T04:07:36.873Z,23.50
2019-02-25T04:08:10.607Z,22.27
2019-02-25T04:08:44.118Z,21.05
2019-02-25T04:09:17.716Z,21.75
2019-02-25T04:09:51.133Z,20.48
2019-02-25T04:10:24.719Z,16.93
2019-02-25T04:10:58.199Z,19.05
2019-02-25T04:11:31.673Z,18.98
2019-02-25T04:12:05.150Z,18.27
2019-02-25T04:12:39.253Z,19.75
2019-02-25T04:13:12.694Z,22.35
2019-02-25T04:13:46.249Z,17.05
2019-02-25T04:14:19.712Z,19.57
2019-02-25T04:14:53.192Z,17.12
2019-02-25T04:15:33.537Z,16.15
2019-02-25T04:16:08.585Z,17.20
2019-02-25T04:16:42.253Z,17.57
2019-02-25T04:17:15.740Z,20.15
2019-02-25T04:17:49.237Z,19.45
2019-02-25T04:18:22.990Z,15.58
2019-02-25T04:18:56.452Z,18.82
2019-02-25T04:19:29.926Z,21.33
2019-02-25T04:20:03.424Z,20.92
2019-02-25T04:20:37.535Z,16.60
2019-02-25T04:21:11.015Z,19.70
2019-02-25T04:21:44.515Z,16.77
2019-02-25T04:22:18.024Z,14.70
2019-02-25T04:22:51.527Z,22.35
2019-02-25T04:23:25.236Z,19.50
2019-02-25T04:23:58.813Z,22.07
2019-02-25T04:24:32.304Z,18.73
2019-02-25T04:25:05.813Z,17.92
2019-02-25T04:25:39.310Z,19.57
2019-02-25T04:26:12.793Z,22.70
2019-02-25T04:26:46.300Z,18.00
2019-02-25T04:27:19.781Z,20.50
2019-02-25T04:27:53.293Z,21.40
2019-02-25T04:28:26.828Z,18.85
2019-02-25T04:29:00.322Z,21.02
2019-02-25T04:29:33.740Z,19.80
2019-02-25T04:30:08.407Z,15.93
2019-02-25T04:30:41.983Z,19.60
2019-02-25T04:31:15.505Z,19.75
2019-02-25T04:31:49.012Z,21.55
2019-02-25T04:32:22.634Z,16.42
2019-02-25T04:32:56.285Z,21.00
2019-02-25T04:33:29.891Z,17.65
2019-02-25T04:34:03.394Z,21.52
2019-02-25T04:34:56.029Z,21.15
2019-02-25T04:35:29.545Z,17.35
2019-02-25T04:36:03.045Z,18.25
2019-02-25T04:36:36.531Z,23.85
2019-02-25T04:37:10.037Z,23.62
2019-02-25T04:37:43.642Z,22.27
2019-02-25T04:38:17.143Z,18.67
2019-02-25T04:38:50.662Z,20.27
2019-02-25T04:39:24.926Z,20.27
2019-02-25T04:39:58.427Z,22.20
2019-02-25T04:40:31.988Z,23.67
2019-02-25T04:41:05.482Z,22.13
2019-02-25T04:41:38.972Z,18.35
2019-02-25T04:42:12.457Z,22.22
2019-02-25T04:42:45.972Z,19.12
2019-02-25T04:43:20.153Z,21.95
2019-02-25T04:43:53.667Z,22.98
2019-02-25T04:44:27.126Z,20.50
2019-02-25T04:45:00.664Z,22.22
2019-02-25T04:45:34.251Z,18.82
2019-02-25T04:46:07.744Z,20.20
2019-02-25T04:46:41.302Z,23.92
2019-02-25T04:47:14.876Z,17.42
2019-02-25T04:47:48.400Z,19.07
2019-02-25T04:48:21.935Z,20.12
2019-02-25T04:48:55.488Z,20.05
2019-02-25T04:49:28.990Z,21.97
2019-02-25T04:50:02.504Z,21.68
2019-02-25T04:50:35.923Z,20.50
2019-02-25T04:51:09.561Z,21.60
2019-02-25T04:51:43.117Z,18.42
2019-02-25T04:52:16.608Z,20.50
2019-02-25T04:52:50.089Z,20.25
2019-02-25T04:53:23.615Z,20.12
2019-02-25T04:53:57.126Z,21.75
2019-02-25T04:54:30.641Z,18.82
2019-02-25T04:55:04.492Z,20.50
2019-02-25T04:55:38.028Z,21.02
2019-02-25T04:56:11.467Z,19.48
2019-02-25T04:56:44.977Z,19.42
2019-02-25T04:57:18.439Z,18.73
2019-02-25T04:57:52.054Z,17.05
2019-02-25T04:58:25.764Z,25.32
2019-02-25T04:58:59.346Z,20.15
2019-02-25T04:59:32.826Z,19.55
2019-02-25T05:00:07.426Z,20.95
2019-02-25T05:00:40.923Z,22.05
2019-02-25T05:01:14.404Z,22.40
2019-02-25T05:01:47.987Z,18.55
2019-02-25T05:02:21.448Z,19.77
2019-02-25T05:02:54.977Z,19.25
2019-02-25T05:03:28.556Z,18.42
2019-02-25T05:04:02.111Z,18.98
2019-02-25T05:04:35.545Z,22.67
2019-02-25T05:05:09.071Z,17.92
2019-02-25T05:05:42.505Z,16.02
2019-02-25T05:06:16.045Z,19.37
2019-02-25T05:06:49.499Z,18.87
2019-02-25T05:07:22.985Z,24.52
2019-02-25T05:07:56.571Z,19.23
2019-02-25T05:08:30.104Z,21.23
2019-02-25T05:09:05.435Z,20.45
2019-02-25T05:09:38.997Z,19.23
2019-02-25T05:10:13.183Z,22.55
2019-02-25T05:10:46.686Z,23.35
2019-02-25T05:11:21.917Z,23.32
2019-02-25T05:11:55.446Z,22.67
2019-02-25T05:12:29.051Z,21.70
2019-02-25T05:13:04.236Z,19.55
2019-02-25T05:13:37.771Z,23.90
2019-02-25T05:14:11.204Z,18.67
2019-02-25T05:14:44.715Z,20.25
2019-02-25T05:15:19.537Z,19.23
2019-02-25T05:15:53.092Z,18.12
2019-02-25T05:16:26.608Z,17.17
2019-02-25T05:17:00.108Z,21.57
2019-02-25T05:17:33.687Z,18.42
2019-02-25T05:18:07.256Z,16.82
2019-02-25T05:18:41.420Z,21.70
2019-02-25T05:19:14.857Z,17.73
2019-02-25T05:19:48.328Z,19.85
2019-02-25T05:20:21.801Z,18.55
2019-02-25T05:20:55.299Z,20.12
2019-02-25T05:21:28.722Z,23.92
2019-02-25T05:22:04.550Z,18.57
2019-02-25T05:22:38.056Z,20.30
2019-02-25T05:23:11.543Z,17.42
2019-02-25T05:23:45.072Z,19.45
2019-02-25T05:24:18.501Z,19.40
2019-02-25T05:24:52.007Z,19.12
2019-02-25T05:25:25.480Z,19.98
2019-02-25T05:25:58.992Z,22.32
2019-02-25T05:26:32.473Z,18.95
2019-02-25T05:27:06.005Z,20.68
2019-02-25T05:27:39.523Z,22.93
2019-02-25T05:28:13.048Z,20.20
2019-02-25T05:28:46.529Z,21.60
2019-02-25T05:29:20.152Z,18.90
2019-02-25T05:29:53.644Z,24.52
2019-02-25T05:30:27.227Z,21.20
2019-02-25T05:31:00.709Z,18.52
2019-02-25T05:31:34.205Z,22.60
2019-02-25T05:32:07.680Z,21.10
2019-02-25T05:32:41.173Z,18.27
2019-02-25T05:33:14.658Z,20.00
2019-02-25T05:33:48.167Z,20.45
2019-02-25T05:34:21.742Z,22.40
2019-02-25T05:34:55.180Z,21.57
2019-02-25T05:35:28.678Z,25.17
2019-02-25T05:36:02.171Z,21.65
2019-02-25T05:36:36.226Z,24.32
2019-02-25T05:37:09.951Z,22.77
2019-02-25T05:37:43.654Z,22.48
2019-02-25T05:38:17.233Z,23.22
2019-02-25T05:39:09.958Z,21.68
2019-02-25T05:39:44.511Z,22.32
2019-02-25T05:40:18.252Z,21.73
2019-02-25T05:40:51.745Z,19.00
2019-02-25T05:41:25.355Z,21.42
2019-02-25T05:41:58.852Z,19.23
2019-02-25T05:42:32.409Z,18.60
2019-02-25T05:43:05.916Z,21.75
2019-02-25T05:43:39.410Z,19.50
2019-02-25T05:44:13.325Z,23.52
2019-02-25T05:44:47.169Z,24.00
2019-02-25T05:45:20.704Z,22.85
2019-02-25T05:45:54.247Z,24.00
2019-02-25T05:46:27.824Z,23.42
2019-02-25T05:47:01.381Z,23.87
2019-02-25T05:47:34.910Z,22.17
2019-02-25T05:48:08.424Z,20.97
2019-02-25T05:48:42.039Z,22.73
2019-02-25T05:49:15.582Z,25.75
2019-02-25T05:49:49.179Z,17.85
2019-02-25T05:50:25.319Z,22.15
2019-02-25T05:50:58.840Z,25.32
2019-02-25T05:51:32.348Z,21.12
2019-02-25T05:52:05.938Z,20.82
2019-02-25T05:52:58.598Z,24.35
2019-02-25T05:53:32.610Z,21.20
2019-02-25T05:54:06.110Z,20.90
2019-02-25T05:54:39.731Z,20.15
2019-02-25T05:55:13.313Z,19.50
2019-02-25T05:55:47.128Z,23.85
2019-02-25T05:56:20.838Z,24.57
2019-02-25T05:56:54.247Z,23.80
2019-02-25T05:57:27.715Z,24.90
2019-02-25T05:58:01.185Z,21.52
2019-02-25T05:58:34.681Z,25.65
2019-02-25T05:59:08.175Z,21.60
2019-02-25T05:59:42.621Z,23.27
2019-02-25T06:00:19.091Z,21.33
2019-02-25T06:00:52.902Z,23.15
2019-02-25T06:01:26.401Z,26.82
2019-02-25T06:02:00.077Z,25.77
2019-02-25T06:02:33.685Z,21.55
2019-02-25T06:03:07.233Z,22.37
2019-02-25T06:03:40.979Z,31.35
2019-02-25T06:04:14.499Z,22.55
2019-02-25T06:04:48.092Z,23.87
2019-02-25T06:05:21.734Z,23.87
2019-02-25T06:05:55.449Z,24.75
2019-02-25T06:06:29.000Z,20.92
2019-02-25T06:07:02.563Z,23.70
2019-02-25T06:07:36.085Z,25.80
2019-02-25T06:08:09.542Z,23.07
2019-02-25T06:08:43.165Z,22.67
2019-02-25T06:09:16.846Z,23.73
2019-02-25T06:09:50.448Z,26.85
2019-02-25T06:10:23.932Z,23.00
2019-02-25T06:10:57.438Z,22.10
2019-02-25T06:11:32.021Z,27.02
2019-02-25T06:12:24.641Z,25.57
2019-02-25T06:12:58.321Z,22.80
2019-02-25T06:13:31.766Z,25.30
2019-02-25T06:14:05.295Z,24.35
2019-02-25T06:14:38.836Z,24.63
2019-02-25T06:15:13.414Z,24.72
2019-02-25T06:15:47.171Z,30.25
2019-02-25T06:16:20.693Z,23.52
2019-02-25T06:16:54.278Z,23.87
2019-02-25T06:17:27.765Z,22.65
2019-02-25T06:18:01.251Z,24.57
2019-02-25T06:18:34.846Z,25.77
2019-02-25T06:19:08.358Z,28.95
2019-02-25T06:19:42.103Z,28.32
2019-02-25T06:20:15.866Z,24.98
2019-02-25T06:20:49.419Z,30.52
2019-02-25T06:21:23.303Z,23.92
2019-02-25T06:21:57.294Z,22.42
2019-02-25T06:22:30.810Z,27.22
2019-02-25T06:23:04.340Z,24.35
2019-02-25T06:23:37.937Z,22.87
2019-02-25T06:24:11.606Z,26.05
2019-02-25T06:24:47.412Z,28.47
2019-02-25T06:25:22.619Z,23.95
2019-02-25T06:25:56.155Z,24.02
2019-02-25T06:26:29.700Z,24.90
2019-02-25T06:27:03.298Z,25.37
2019-02-25T06:27:56.170Z,27.95
2019-02-25T06:28:29.734Z,25.32
2019-02-25T06:29:03.252Z,24.02
2019-02-25T06:29:36.887Z,22.58
2019-02-25T06:30:11.872Z,27.30
2019-02-25T06:30:45.369Z,23.12
2019-02-25T06:31:18.884Z,25.32
2019-02-25T06:31:52.321Z,28.27
2019-02-25T06:32:25.874Z,25.25
2019-02-25T06:32:59.370Z,23.07
2019-02-25T06:33:33.044Z,21.27
2019-02-25T06:34:06.564Z,29.72
2019-02-25T06:34:40.086Z,24.92
2019-02-25T06:35:13.861Z,23.45
2019-02-25T06:35:47.379Z,24.02
2019-02-25T06:36:20.872Z,26.57
2019-02-25T06:36:54.485Z,26.87
2019-02-25T06:37:27.972Z,24.57
2019-02-25T06:38:01.489Z,23.45
2019-02-25T06:38:34.998Z,25.37
2019-02-25T06:39:08.959Z,26.70
2019-02-25T06:39:42.469Z,25.35
2019-02-25T06:40:17.503Z,23.62
2019-02-25T06:40:51.072Z,22.13
2019-02-25T06:41:24.549Z,24.67
2019-02-25T06:41:58.102Z,27.48
2019-02-25T06:42:31.611Z,24.57
2019-02-25T06:43:05.171Z,23.77
2019-02-25T06:43:38.622Z,26.45
2019-02-25T06:44:12.106Z,19.05
2019-02-25T06:45:04.825Z,21.02
2019-02-25T06:45:38.358Z,28.38
2019-02-25T06:46:12.018Z,23.92
2019-02-25T06:46:45.566Z,21.62
2019-02-25T06:47:19.035Z,25.68
2019-02-25T06:47:52.706Z,22.93
2019-02-25T06:48:26.310Z,27.07
2019-02-25T06:48:59.895Z,26.20
2019-02-25T06:49:33.380Z,21.20
2019-02-25T06:50:08.177Z,29.20
2019-02-25T06:50:41.712Z,24.57
2019-02-25T06:51:15.329Z,27.05
2019-02-25T06:51:48.826Z,27.55
2019-02-25T06:52:24.099Z,25.00
2019-02-25T06:52:57.668Z,25.70
2019-02-25T06:53:31.103Z,24.82
2019-02-25T06:54:04.618Z,30.77
2019-02-25T06:54:38.156Z,21.12
2019-02-25T06:55:13.607Z,24.15
2019-02-25T06:55:47.087Z,25.40
2019-02-25T06:56:20.644Z,23.07
2019-02-25T06:56:54.149Z,26.35
2019-02-25T06:57:27.684Z,25.82
2019-02-25T06:58:01.450Z,23.32
2019-02-25T06:58:35.026Z,27.73
2019-02-25T06:59:08.675Z,31.12
2019-02-25T06:59:42.183Z,34.53
2019-02-25T07:00:16.847Z,30.95
2019-02-25T07:00:50.460Z,29.25
2019-02-25T07:01:24.044Z,25.77
2019-02-25T07:01:58.116Z,29.65
2019-02-25T07:02:31.676Z,26.62
2019-02-25T07:03:05.251Z,24.80
2019-02-25T07:03:38.846Z,26.87
2019-02-25T07:04:23.743Z,26.33
2019-02-25T07:05:25.434Z,21.10
2019-02-25T07:06:21.574Z,21.25
2019-02-25T07:07:22.969Z,23.40
2019-02-25T07:07:59.446Z,25.02
2019-02-25T07:08:50.450Z,27.58
2019-02-25T07:09:41.825Z,28.62
2019-02-25T07:10:33.666Z,25.10
2019-02-25T07:11:16.427Z,29.65
2019-02-25T07:12:09.083Z,26.62
2019-02-25T07:12:50.233Z,30.88
2019-02-25T07:13:44.196Z,28.62
2019-02-25T07:14:47.358Z,28.10
2019-02-25T07:15:48.962Z,28.47
2019-02-25T07:16:54.531Z,30.85
2019-02-25T07:17:41.670Z,33.35
2019-02-25T07:18:30.209Z,27.15
2019-02-25T07:19:22.864Z,24.43
2019-02-25T07:20:05.569Z,23.45
2019-02-25T07:21:07.251Z,29.72
2019-02-25T07:22:09.127Z,26.17
2019-02-25T07:22:56.633Z,29.10
2019-02-25T07:23:51.445Z,25.85
2019-02-25T07:24:52.445Z,24.23
2019-02-25T07:25:38.565Z,27.73
2019-02-25T07:26:37.494Z,25.70
2019-02-25T07:27:18.920Z,28.12
2019-02-25T07:28:29.619Z,26.48
2019-02-25T07:29:21.154Z,24.72